Thunder radar more information blitzortung!


Radar de pluja more information rain snow radar


Visita la nostra xarxa de llocs de meteo:

Template documentation
and downloads

And another site



No particular awareness of the weather is required.    There are no Weather-warnings

Pagina Historial Weather Underground text

Diari Resum January 15, 2018 Unitats:  Imperial    Mètric   Tant
« Previous Dia
SegĂźent Dia »
Diari Setmana Mensual Anual Personalitzada
  Maxima: Minima: Media:
Temperatura: TemperatureC °F 2.9 °F 7.4 °F
Punt de rosada: DewpointC °F -0.6 °F 1.3 °F
Humitat: Humidity % 60 % 65 %
Wind Speed: WindSpeedKMH mph 0.0 mph 5.2 mph
RĂ fegues de vent: WindSpeedGustKMH mph - -
Vent:- - WSW
Pression baro: PressurehPa in 1015.8 in -
Precipitacions: 0.0 in    
Historical Graphs
 
 
Dades de taula per January 15, 2018
Temps Temperatura Punt de rosada Pression baro Vent Wind Speed RĂ fegues de vent Humitat Rainfall Rate (Hourly)
TemperatureC °F DewpointC °F PressurehPa in Calm     Humidity % HourlyPrecipMM in
00:10 8.7 °F 1.6 °F 1015.8 in WSW 5.8 mph 5.8 mph 61 % 0.0 in
00:21 8.7 °F 1.6 °F 1015.8 in WSW 5.8 mph 5.8 mph 61 % 0.0 in
00:30 8.7 °F 1.6 °F 1015.8 in WSW 5.8 mph 5.8 mph 61 % 0.0 in
00:59 8.7 °F 1.6 °F 1015.8 in WSW 5.8 mph 5.8 mph 61 % 0.0 in
01:18 8.7 °F 1.6 °F 1015.8 in WSW 5.8 mph 5.8 mph 61 % 0.0 in
01:29 8.7 °F 1.6 °F 1015.8 in WSW 5.8 mph 5.8 mph 61 % 0.0 in
01:34 8.7 °F 1.6 °F 1015.8 in WSW 5.8 mph 5.8 mph 61 % 0.0 in
01:40 8.7 °F 1.6 °F 1015.8 in WSW 5.8 mph 5.8 mph 61 % 0.0 in
01:49 8.7 °F 1.6 °F 1015.8 in WSW 5.8 mph 5.8 mph 61 % 0.0 in
01:55 8.7 °F 1.6 °F 1015.8 in WSW 5.8 mph 5.8 mph 61 % 0.0 in
02:02 8.7 °F 1.6 °F 1015.8 in WSW 5.8 mph 5.8 mph 61 % 0.0 in
02:14 8.7 °F 1.6 °F 1015.8 in WSW 5.8 mph 5.8 mph 61 % 0.0 in
02:23 8.7 °F 1.6 °F 1015.8 in WSW 5.8 mph 5.8 mph 61 % 0.0 in
02:34 8.7 °F 1.6 °F 1015.8 in WSW 5.8 mph 5.8 mph 61 % 0.0 in
02:53 8.7 °F 1.6 °F 1015.8 in WSW 5.8 mph 5.8 mph 61 % 0.0 in
03:16 8.7 °F 1.6 °F 1015.8 in WSW 5.8 mph 5.8 mph 61 % 0.0 in
03:45 8.7 °F 1.6 °F 1015.8 in WSW 5.8 mph 5.8 mph 61 % 0.0 in
03:57 8.7 °F 1.6 °F 1015.8 in WSW 5.8 mph 5.8 mph 61 % 0.0 in
04:03 8.7 °F 1.6 °F 1015.8 in WSW 5.8 mph 5.8 mph 61 % 0.0 in
04:24 8.7 °F 1.6 °F 1015.8 in WSW 5.8 mph 5.8 mph 61 % 0.0 in
04:46 8.7 °F 1.6 °F 1015.8 in WSW 5.8 mph 5.8 mph 61 % 0.0 in
04:53 8.7 °F 1.6 °F 1015.8 in WSW 5.8 mph 5.8 mph 61 % 0.0 in
04:58 8.7 °F 1.6 °F 1015.8 in WSW 5.8 mph 5.8 mph 61 % 0.0 in
05:07 8.7 °F 1.6 °F 1015.8 in WSW 5.8 mph 5.8 mph 61 % 0.0 in
05:13 8.7 °F 1.6 °F 1015.8 in WSW 5.8 mph 5.8 mph 61 % 0.0 in
05:50 8.7 °F 1.6 °F 1015.8 in WSW 5.8 mph 5.8 mph 61 % 0.0 in
06:09 8.7 °F 1.6 °F 1015.8 in WSW 5.8 mph 5.8 mph 61 % 0.0 in
06:19 8.7 °F 1.6 °F 1015.8 in WSW 5.8 mph 5.8 mph 61 % 0.0 in
06:32 8.7 °F 1.6 °F 1015.8 in WSW 5.8 mph 5.8 mph 61 % 0.0 in
06:46 8.7 °F 1.6 °F 1015.8 in WSW 5.8 mph 5.8 mph 61 % 0.0 in
07:08 8.7 °F 1.6 °F 1015.8 in WSW 5.8 mph 5.8 mph 61 % 0.0 in
07:14 8.7 °F 1.6 °F 1015.8 in WSW 5.8 mph 5.8 mph 61 % 0.0 in
07:29 8.7 °F 1.6 °F 1015.8 in WSW 5.8 mph 5.8 mph 61 % 0.0 in
07:35 8.7 °F 1.6 °F 1015.8 in WSW 5.8 mph 5.8 mph 61 % 0.0 in
07:41 8.7 °F 1.6 °F 1015.8 in WSW 5.8 mph 5.8 mph 61 % 0.0 in
07:48 8.7 °F 1.6 °F 1015.8 in WSW 5.8 mph 5.8 mph 61 % 0.0 in
08:04 3.0 °F -0.4 °F 1022.9 in West 5.6 mph 5.6 mph 78 % 0.0 in
08:11 3.0 °F -0.4 °F 1022.9 in WNW 2.3 mph   78 % 0.0 in
08:20 3.0 °F -0.4 °F 1023.9 in NNE 3.7 mph 3.7 mph 78 % 0.0 in
08:30 2.9 °F -0.6 °F 1023.9 in WSW 3.7 mph 3.7 mph 78 % 0.0 in
08:36 3.0 °F -0.4 °F 1023.9 in Calm     78 % 0.0 in
08:42 3.3 °F -0.2 °F 1023.9 in WNW 3.7 mph 3.7 mph 78 % 0.0 in
08:50 3.6 °F 0.1 °F 1023.9 in WNW 3.2 mph 6.4 mph 78 % 0.0 in
08:55 3.9 °F 0.4 °F 1023.9 in WNW 1.6 mph 4.8 mph 78 % 0.0 in
09:00 4.2 °F 0.7 °F 1023.9 in Calm     78 % 0.0 in
09:06 4.4 °F 0.9 °F 1023.9 in WNW 1.9 mph 1.9 mph 78 % 0.0 in
09:11 4.4 °F 0.7 °F 1023.9 in West 3.7 mph 3.7 mph 77 % 0.0 in
09:18 4.7 °F 1.0 °F 1023.9 in NNW 1.9 mph 1.9 mph 77 % 0.0 in
09:34 5.8 °F 1.9 °F 1023.9 in Calm     76 % 0.0 in
09:43 6.2 °F 2.1 °F 1023.9 in NE 1.9 mph 1.9 mph 75 % 0.0 in
09:52 6.9 °F 2.8 °F 1023.9 in NNE 1.9 mph   75 % 0.0 in
10:04 7.2 °F 2.7 °F 1023.9 in NNE 3.2 mph   73 % 0.0 in
10:11 7.2 °F 2.3 °F 1023.9 in NNE 3.9 mph 3.9 mph 71 % 0.0 in
10:18 6.9 °F 2.0 °F 1024.9 in NNE 4.7 mph 4.7 mph 71 % 0.0 in
10:37 6.9 °F 2.0 °F 1024.9 in NNW 2.3 mph 2.3 mph 71 % 0.0 in
10:43 6.9 °F 2.0 °F 1024.9 in NNW 2.3 mph 2.3 mph 71 % 0.0 in
10:54 6.9 °F 2.0 °F 1024.9 in NNW 2.3 mph 2.3 mph 71 % 0.0 in
11:00 6.9 °F 2.0 °F 1024.9 in NNW 2.3 mph 2.3 mph 71 % 0.0 in
11:06 6.9 °F 2.0 °F 1024.9 in NNW 2.3 mph 2.3 mph 71 % 0.0 in
11:14 6.9 °F 2.0 °F 1024.9 in NNW 2.3 mph 2.3 mph 71 % 0.0 in
11:35 7.6 °F 1.8 °F 1026.0 in NNE 7.4 mph 7.4 mph 67 % 0.0 in
12:04 8.2 °F 2.4 °F 1026.0 in NE 6.9 mph 6.9 mph 67 % 0.0 in
12:26 8.8 °F 2.8 °F 1026.0 in North 7.4 mph 7.4 mph 66 % 0.0 in
12:34 9.2 °F 3.2 °F 1026.0 in WNW 3.7 mph 3.7 mph 66 % 0.0 in
12:44 9.2 °F 2.9 °F 1026.0 in East 5.3 mph 5.3 mph 65 % 0.0 in
13:02 9.2 °F 2.9 °F 1026.0 in WNW 3.7 mph 3.7 mph 65 % 0.0 in
13:22 9.3 °F 2.6 °F 1026.0 in NNE 7.4 mph 7.4 mph 63 % 0.0 in
13:56 8.5 °F 1.8 °F 1024.9 in NNE 9.3 mph 9.3 mph 63 % 0.0 in
14:15 8.6 °F 1.9 °F 1023.9 in NE 3.2 mph 8.0 mph 63 % 0.0 in
14:27 8.8 °F 2.1 °F 1023.9 in NW 3.7 mph 3.7 mph 63 % 0.0 in
14:44 9.9 °F 2.9 °F 1023.9 in SW 5.6 mph 5.6 mph 62 % 0.0 in
14:51 10.1 °F 3.2 °F 1024.9 in West 9.3 mph 9.3 mph 62 % 0.0 in
14:57 10.1 °F 3.2 °F 1024.9 in NW 9.3 mph 9.3 mph 62 % 0.0 in
15:02 9.9 °F 2.7 °F 1024.9 in WSW 13.0 mph 13.0 mph 61 % 0.0 in
15:08 9.8 °F 2.4 °F 1022.9 in WSW 16.7 mph 16.7 mph 60 % 0.0 in
15:19 9.4 °F 2.0 °F 1023.9 in NW 7.4 mph 7.4 mph 60 % 0.0 in
15:26 9.4 °F 2.0 °F 1023.9 in WSW 16.7 mph 16.7 mph 60 % 0.0 in
15:43 9.2 °F 1.8 °F 1023.9 in WSW 13.0 mph 13.0 mph 60 % 0.0 in
15:49 9.2 °F 1.8 °F 1023.9 in West 7.4 mph 7.4 mph 60 % 0.0 in
15:56 9.1 °F 1.7 °F 1023.9 in NW 7.4 mph 7.4 mph 60 % 0.0 in
16:04 9.0 °F 1.7 °F 1023.9 in WNW 9.3 mph 9.3 mph 60 % 0.0 in
16:32 8.6 °F 1.5 °F 1023.9 in SW 7.9 mph 7.9 mph 61 % 0.0 in
16:44 8.3 °F 1.2 °F 1023.9 in WSW 7.4 mph 7.4 mph 61 % 0.0 in
17:00 8.1 °F 1.0 °F 1023.9 in WSW 7.4 mph 7.4 mph 61 % 0.0 in
17:24 7.5 °F 0.7 °F 1022.9 in SW 9.3 mph 9.3 mph 62 % 0.0 in
18:14 6.9 °F 0.3 °F 1023.9 in NNW 1.9 mph   63 % 0.0 in
18:20 6.8 °F 0.2 °F 1023.9 in WNW 2.3 mph 2.3 mph 63 % 0.0 in
18:26 6.7 °F 0.2 °F 1023.9 in Calm     63 % 0.0 in
18:34 6.7 °F 0.4 °F 1022.9 in SW 3.7 mph 3.7 mph 64 % 0.0 in
18:45 6.5 °F 0.2 °F 1022.9 in WSW 7.4 mph 7.4 mph 64 % 0.0 in
18:53 6.4 °F 0.1 °F 1022.9 in SW 3.7 mph 3.7 mph 64 % 0.0 in
19:00 6.3 °F 0.2 °F 1022.9 in WSW 3.7 mph 3.7 mph 65 % 0.0 in
19:19 6.0 °F -0.1 °F 1022.9 in SW 7.4 mph 7.4 mph 65 % 0.0 in
19:32 6.1 °F 0.2 °F 1022.9 in WSW 3.7 mph 3.7 mph 66 % 0.0 in
19:50 6.4 °F 0.5 °F 1022.9 in WSW 3.2 mph 6.4 mph 66 % 0.0 in
19:55 6.9 °F 0.6 °F 1021.9 in WSW 3.2 mph 4.8 mph 64 % 0.0 in
20:05 6.8 °F 0.4 °F 1021.9 in West 4.8 mph 4.8 mph 64 % 0.0 in
20:06 6.9 °F 1.0 °F 1022.9 in SW 7.4 mph 7.4 mph 66 % 0.0 in
20:25 6.6 °F 0.3 °F 1021.9 in WNW 1.6 mph 3.2 mph 64 % 0.0 in
20:28 7.0 °F 1.1 °F 1023.9 in WNW 7.4 mph 7.4 mph 66 % 0.0 in
20:35 6.6 °F 0.3 °F 1021.9 in WNW 3.2 mph 3.2 mph 64 % 0.0 in
20:45 6.8 °F 0.4 °F 1021.9 in West 1.6 mph 6.4 mph 64 % 0.0 in
20:55 6.9 °F 0.6 °F 1021.9 in West 1.6 mph 4.8 mph 64 % 0.0 in
20:57 7.1 °F 1.2 °F 1022.9 in West 5.8 mph 5.8 mph 66 % 0.0 in
21:03 7.1 °F 1.2 °F 1022.9 in WNW 5.6 mph 5.6 mph 66 % 0.0 in
21:05 6.9 °F 0.6 °F 1021.9 in WSW 3.2 mph 4.8 mph 64 % 0.0 in
21:09 7.1 °F 1.2 °F 1022.9 in West 3.7 mph 3.7 mph 66 % 0.0 in
21:15 6.9 °F 0.3 °F 1021.9 in WSW 1.6 mph 4.8 mph 63 % 0.0 in
21:20 7.2 °F 1.5 °F 1023.9 in WNW 3.7 mph 3.7 mph 67 % 0.0 in
21:25 6.9 °F 0.3 °F 1020.9 in WSW 3.2 mph 3.2 mph 63 % 0.0 in
21:26 7.2 °F 1.5 °F 1023.9 in WNW 3.7 mph 3.7 mph 67 % 0.0 in
21:32 7.2 °F 1.5 °F 1023.9 in West 5.6 mph 5.6 mph 67 % 0.0 in
21:35 6.9 °F 0.3 °F 1020.9 in WSW 3.2 mph 6.4 mph 63 % 0.0 in
21:37 7.2 °F 1.5 °F 1022.9 in NW 5.6 mph 5.6 mph 67 % 0.0 in
21:45 7.0 °F 0.4 °F 1020.9 in WSW 8.0 mph 8.0 mph 63 % 0.0 in
21:46 7.2 °F 1.5 °F 1022.9 in WSW 5.6 mph 5.6 mph 67 % 0.0 in
21:47 7.2 °F 1.5 °F 1022.9 in West 5.6 mph 5.6 mph 67 % 0.0 in
21:48 7.2 °F 1.5 °F 1022.9 in WNW 6.1 mph 6.1 mph 67 % 0.0 in
21:49 7.2 °F 1.5 °F 1023.9 in NW 9.3 mph 9.3 mph 67 % 0.0 in
21:50 7.2 °F 1.5 °F 1023.9 in WSW 5.6 mph 5.6 mph 67 % 0.0 in
21:51 7.2 °F 1.5 °F 1023.9 in WSW 7.4 mph 7.4 mph 67 % 0.0 in
21:55 7.0 °F 0.4 °F 1020.9 in WSW 4.8 mph 8.0 mph 63 % 0.0 in
22:00 7.3 °F 1.6 °F 1023.9 in WSW 3.7 mph 4.2 mph 67 % 0.0 in
22:02 7.2 °F 1.5 °F 1023.9 in SW 7.4 mph 7.4 mph 67 % 0.0 in
22:05 7.1 °F 1.4 °F 1022.9 in SW 3.7 mph 3.7 mph 67 % 0.0 in
22:07 7.0 °F 1.3 °F 1022.9 in WSW 3.7 mph 3.7 mph 67 % 0.0 in
22:15 7.2 °F 0.6 °F 1020.9 in WSW 4.8 mph 6.4 mph 63 % 0.0 in
22:16 6.9 °F 1.2 °F 1022.9 in West 5.6 mph 5.6 mph 67 % 0.0 in
22:25 7.2 °F 0.4 °F 1020.9 in WSW 4.8 mph 9.7 mph 62 % 0.0 in
22:35 7.3 °F 0.5 °F 1019.9 in SW 4.8 mph 6.4 mph 62 % 0.0 in
22:36 7.0 °F 1.3 °F 1023.9 in NW 4.7 mph   67 % 0.0 in
22:42 7.0 °F 1.3 °F 1023.9 in WNW 3.7 mph 3.7 mph 67 % 0.0 in
22:45 7.2 °F 0.4 °F 1019.9 in WSW 4.8 mph 6.4 mph 62 % 0.0 in
22:55 7.2 °F 0.4 °F 1019.9 in WSW 4.8 mph 9.7 mph 62 % 0.0 in
23:01 7.1 °F 1.4 °F 1022.9 in WNW 7.4 mph 7.4 mph 67 % 0.0 in
23:05 7.1 °F 0.1 °F 1019.9 in SW 8.0 mph 8.0 mph 61 % 0.0 in
23:15 7.1 °F 0.1 °F 1019.9 in WSW 4.8 mph 9.7 mph 61 % 0.0 in
23:20 7.0 °F 1.1 °F 1022.9 in West 3.7 mph 3.7 mph 66 % 0.0 in
23:25 6.9 °F -0.1 °F 1019.9 in WSW 4.8 mph 9.7 mph 61 % 0.0 in
23:38 6.9 °F 1.0 °F 1023.9 in WNW 3.7 mph 3.7 mph 66 % 0.0 in
23:44 7.0 °F 1.1 °F 1023.9 in SW 5.6 mph 5.6 mph 66 % 0.0 in
23:45 6.9 °F -0.1 °F 1019.9 in SW 8.0 mph 8.0 mph 61 % 0.0 in
Meteo Sesrovires
Elogis d' Weather Underground - 2 mb

Guio original per  Jim McMurry - jmcmurry@mwt.net Adaptat per a la plantilla per  Wim van der Kuil - Leuven-Template.eu

Trobareu la nostra informacio del temps tambe a:

Weather Underground

AWEKAS